Latest Weather Observations for Adelaide (West Terrace / ngayirdapira)

IDS60901

Issued at 11:11 am CST Friday 14 May 2021 (issued every 10 minutes, with the page automatically refreshed every 10 minutes)

About weather observations | Map of Adelaide area stations | Latest observations for Adelaide area | Other Formats
Station Details ID: 023000 Name: ADELAIDE (WEST TERRACE / NGAYIRDAPIRA) Lat: -34.93 Lon: 138.58 Height: 29.32 m
Data from the previous 72 hours. | See also: Recent months at Adelaide (West Terrace / ngayirdapira)
Date/Time
CST
Temp
°C
App
Temp
°C
Dew
Point
°C
Rel
Hum
%
Delta-T
°C
Wind Press
QNH
hPa
Press
MSL
hPa
Rain since
9am
mm
Dir  Spd
km/h
Gust
km/h
Spd
kts
Gust
kts
14/11:00am 15.7 12.1 8.4 62 3.7 SW 17 24 9 13 1021.6 1021.6 0.0
14/10:30am 15.5 11.8 7.8 60 3.8 SW 17 28 9 15 1021.8 1021.8 0.0
14/10:00am 14.6 10.9 9.6 72 2.6 SW 19 37 10 20 1021.8 1021.8 0.0
14/09:30am 15.3 11.4 7.3 59 3.9 SW 17 28 9 15 1021.7 1021.7 0.0
14/09:00am 15.0 11.1 7.3 60 3.8 SW 17 26 9 14 1021.6 1021.6 9.8
14/08:30am 14.4 11.6 8.4 67 3.0 SW 13 28 7 15 1021.3 1021.3 9.8
14/08:00am 13.9 11.6 9.1 73 2.4 SW 11 22 6 12 1021.0 1021.0 9.8
14/07:30am 13.6 10.8 8.4 71 2.6 SSW 13 22 7 12 1020.5 1020.5 9.8
14/07:00am 13.8 10.4 9.3 74 2.3 SW 17 32 9 17 1020.1 1020.1 9.8
14/06:30am 13.7 11.1 9.2 74 2.3 SSW 13 28 7 15 1019.8 1019.8 9.8
14/06:00am 13.0 11.3 9.8 81 1.6 SSW 9 15 5 8 1019.4 1019.4 9.8
14/05:30am 13.0 10.7 10.4 84 1.3 SSW 13 24 7 13 1019.1 1019.1 9.8
14/05:12am 13.0 11.8 11.7 92 0.7 SSW 9 15 5 8 1019.1 1019.1 9.8
14/05:00am 12.8 10.5 11.7 93 0.6 WSW 15 20 8 11 1019.0 1019.0 9.8
14/04:55am 12.8 10.5 11.7 93 0.6 W 15 20 8 11 1019.0 1019.0 9.8
14/04:51am 12.7 10.7 11.6 93 0.6 W 13 20 7 11 1019.0 1019.0 9.2
14/04:32am 12.7 10.7 11.4 92 0.7 W 13 24 7 13 1018.9 1018.9 9.2
14/04:30am 12.6 10.2 11.3 92 0.7 W 15 24 8 13 1019.0 1019.0 9.2
14/04:26am 12.6 10.2 11.5 93 0.6 WSW 15 28 8 15 1019.0 1019.0 9.2
14/04:00am 12.7 10.1 10.6 87 1.1 WSW 15 28 8 15 1019.1 1019.1 8.6
14/03:58am 13.0 10.3 10.5 85 1.3 WSW 15 26 8 14 1019.1 1019.1 8.4
14/03:30am 14.2 10.0 8.4 68 2.9 WSW 20 37 11 20 1019.1 1019.1 8.4
14/03:00am 14.4 10.6 7.5 63 3.4 W 17 24 9 13 1019.1 1019.1 8.4
14/02:30am 14.0 10.7 8.2 68 2.9 W 15 24 8 13 1019.5 1019.5 8.4
14/02:00am 14.3 11.1 8.3 67 3.0 W 15 26 8 14 1019.6 1019.6 8.4
14/01:30am 13.1 10.1 6.2 63 3.3 WSW 11 17 6 9 1019.7 1019.7 8.4
14/01:00am 13.4 10.5 6.7 64 3.2 SW 11 22 6 12 1019.8 1019.8 8.4
14/12:30am 13.6 10.6 6.0 60 3.6 SW 11 19 6 10 1020.0 1020.0 8.4
14/12:00am 13.6 10.1 5.5 58 3.8 SW 13 22 7 12 1020.1 1020.1 8.4
 
Date/Time
CST
Temp
°C
App
Temp
°C
Dew
Point
°C
Rel
Hum
%
Delta-T
°C
Wind Press
QNH
hPa
Press
MSL
hPa
Rain since
9am
mm
Dir  Spd
km/h
Gust
km/h
Spd
kts
Gust
kts
13/11:30pm 13.9 9.7 5.5 57 3.9 SW 17 26 9 14 1020.1 1020.1 8.4
13/11:00pm 13.7 10.4 6.6 62 3.4 SW 13 20 7 11 1020.3 1020.3 8.4
13/10:30pm 13.9 9.9 6.5 61 3.6 SW 17 30 9 16 1020.5 1020.5 8.4
13/10:00pm 13.2 10.2 6.1 62 3.4 SW 11 17 6 9 1020.5 1020.5 8.4
13/09:30pm 13.4 10.2 5.3 58 3.8 SW 11 20 6 11 1020.5 1020.5 8.4
13/09:00pm 13.3 10.2 5.7 60 3.6 SW 11 19 6 10 1020.5 1020.5 8.4
13/08:30pm 13.6 9.8 5.7 59 3.7 SW 15 24 8 13 1020.4 1020.4 8.4
13/08:00pm 13.9 10.6 6.5 61 3.6 SW 13 24 7 13 1020.1 1020.1 8.4
13/07:30pm 14.1 11.0 7.4 64 3.3 SW 13 26 7 14 1020.0 1020.0 8.4
13/07:00pm 14.2 11.0 6.8 61 3.6 SW 13 20 7 11 1019.8 1019.8 8.4
13/06:30pm 13.8 11.4 7.1 64 3.3 S 9 17 5 9 1019.5 1019.5 8.4
13/06:00pm 14.0 10.8 6.8 62 3.5 SW 13 20 7 11 1019.4 1019.4 8.4
13/05:30pm 14.2 10.7 7.3 63 3.4 SSW 15 24 8 13 1019.0 1019.0 8.4
13/05:00pm 14.6 11.1 7.2 61 3.6 SW 15 26 8 14 1018.8 1018.8 8.4
13/04:30pm 14.6 11.6 7.6 63 3.5 SW 13 30 7 16 1018.6 1018.6 8.4
13/04:00pm 14.9 10.6 7.9 63 3.5 SSW 20 33 11 18 1018.3 1018.3 8.4
13/03:30pm 15.2 10.9 7.7 61 3.7 SSW 20 32 11 17 1017.9 1017.9 8.4
13/03:00pm 15.4 11.7 7.9 61 3.7 SW 17 33 9 18 1018.0 1018.0 8.4
13/02:30pm 15.1 11.9 8.6 65 3.3 SW 15 28 8 15 1017.7 1017.7 8.4
13/02:00pm 15.3 11.6 8.1 62 3.6 SW 17 30 9 16 1017.6 1017.6 8.4
13/01:30pm 14.8 10.5 9.4 70 2.8 SSW 22 39 12 21 1017.5 1017.5 8.4
13/01:00pm 16.1 12.2 9.5 65 3.4 SW 20 32 11 17 1017.3 1017.3 8.4
13/12:30pm 15.3 11.8 10.1 71 2.7 SSW 19 33 10 18 1017.6 1017.6 8.4
13/12:00pm 14.4 11.2 11.4 82 1.6 SSW 19 28 10 15 1017.8 1017.8 8.4
13/11:30am 14.0 13.6 12.9 93 0.6 S 7 13 4 7 1017.9 1017.9 8.4
13/11:04am 12.7 12.5 11.8 94 0.5 SE 4 7 2 4 1017.9 1017.9 8.4
13/11:00am 12.6 12.1 12.0 96 0.3 ESE 6 11 3 6 1017.8 1017.8 8.4
13/10:30am 11.7 10.7 11.1 96 0.3 SE 7 11 4 6 1017.7 1017.7 8.0
13/10:00am 11.4 10.3 10.6 95 0.4 N 7 11 4 6 1017.3 1017.3 3.2
13/09:30am 11.1 9.4 10.0 93 0.6 N 9 15 5 8 1017.2 1017.2 1.2
13/09:28am 11.1 9.4 9.9 92 0.6 N 9 15 5 8 1017.2 1017.2 1.2
13/09:06am 11.6 9.5 8.3 80 1.6 N 9 15 5 8 1017.1 1017.1 0.0
13/09:00am 11.8 9.2 7.9 77 1.9 N 11 17 6 9 1017.0 1017.0 0.0
13/08:30am 11.8 8.8 7.5 75 2.1 NNE 13 24 7 13 1017.0 1017.0 0.0
13/08:00am 11.4 8.3 7.1 75 2.1 NNE 13 19 7 10 1016.9 1016.9 0.0
13/07:30am 11.2 8.4 6.9 75 2.0 NNE 11 19 6 10 1016.7 1016.7 0.0
13/07:00am 10.8 7.9 6.4 74 2.1 NNE 11 17 6 9 1016.6 1016.6 0.0
13/06:30am 10.4 6.9 5.6 72 2.2 NE 13 17 7 9 1016.4 1016.4 0.0
13/06:00am 10.5 7.7 5.3 70 2.4 NNE 9 15 5 8 1016.6 1016.6 0.0
13/05:30am 10.2 7.3 4.6 68 2.5 NNE 9 15 5 8 1016.7 1016.7 0.0
13/05:00am 10.1 6.4 4.3 67 2.6 NE 13 15 7 8 1016.3 1016.3 0.0
13/04:30am 10.0 6.6 4.0 66 2.6 NE 11 17 6 9 1016.5 1016.5 0.0
13/04:00am 9.6 6.3 4.4 70 2.3 NE 11 15 6 8 1016.7 1016.7 0.0
13/03:30am 9.9 5.8 4.3 68 2.5 NE 15 20 8 11 1016.5 1016.5 0.0
13/03:00am 10.2 6.8 4.1 66 2.7 NNE 11 15 6 8 1017.3 1017.3 0.0
13/02:30am 10.5 7.1 4.0 64 2.9 NE 11 13 6 7 1017.6 1017.6 0.0
13/02:00am 10.6 8.0 4.1 64 2.9 NNE 7 13 4 7 1017.8 1017.8 0.0
13/01:30am 10.0 7.1 4.8 70 2.3 NNE 9 15 5 8 1017.9 1017.9 0.0
13/01:00am 10.2 7.3 4.8 69 2.4 NE 9 13 5 7 1017.9 1017.9 0.0
13/12:30am 9.8 7.3 4.8 71 2.2 NE 7 13 4 7 1018.2 1018.2 0.0
13/12:00am 9.9 7.0 4.9 71 2.2 NE 9 13 5 7 1018.5 1018.5 0.0
 
Date/Time
CST
Temp
°C
App
Temp
°C
Dew
Point
°C
Rel
Hum
%
Delta-T
°C
Wind Press
QNH
hPa
Press
MSL
hPa
Rain since
9am
mm
Dir  Spd
km/h
Gust
km/h
Spd
kts
Gust
kts
12/11:30pm 10.6 7.0 4.9 68 2.6 NE 13 20 7 11 1018.6 1018.6 0.0
12/11:00pm 10.6 7.4 4.9 68 2.6 NE 11 17 6 9 1018.8 1018.8 0.0
12/10:30pm 10.1 6.9 5.1 71 2.3 NE 11 15 6 8 1018.9 1018.9 0.0
12/10:00pm 10.2 7.1 5.4 72 2.2 NE 11 17 6 9 1019.3 1019.3 0.0
12/09:30pm 10.8 7.6 5.1 68 2.6 NE 11 15 6 8 1019.4 1019.4 0.0
12/09:00pm 10.5 7.9 5.9 73 2.1 NE 9 11 5 6 1019.7 1019.7 0.0
12/08:30pm 10.6 8.4 6.0 73 2.1 NE 7 11 4 6 1019.8 1019.8 0.0
12/08:00pm 10.9 8.7 6.1 72 2.2 NE 7 11 4 6 1020.0 1020.0 0.0
12/07:30pm 12.0 9.8 6.3 68 2.7 ENE 7 9 4 5 1020.2 1020.2 0.0
12/07:00pm 11.5 9.4 6.0 69 2.6 ENE 6 9 3 5 1020.3 1020.3 0.0
12/06:30pm 12.9 10.8 6.7 66 3.0 ENE 7 9 4 5 1020.1 1020.1 0.0
12/06:00pm 12.8 10.8 6.2 64 3.1 NE 6 9 3 5 1020.2 1020.2 0.0
12/05:30pm 13.1 11.0 6.0 62 3.4 NE 6 9 3 5 1020.0 1020.0 0.0
12/05:00pm 14.0 12.6 5.6 57 4.0 ENE 2 7 1 4 1020.2 1020.2 0.0
12/04:30pm 15.0 13.4 6.3 56 4.2 W 4 7 2 4 1020.3 1020.3 0.0
12/04:00pm 14.9 12.0 6.7 58 4.0 W 11 17 6 9 1020.6 1020.6 0.0
12/03:30pm 15.3 12.5 7.1 58 4.0 W 11 19 6 10 1020.4 1020.4 0.0
12/03:00pm 15.1 11.5 6.7 57 4.1 W 15 24 8 13 1020.6 1020.6 0.0
12/02:30pm 15.6 12.3 6.6 55 4.4 SW 13 20 7 11 1020.4 1020.4 0.0
12/02:00pm 16.5 14.5 6.3 51 5.0 NW 6 13 3 7 1020.4 1020.4 0.0
12/01:30pm 16.3 13.7 6.2 51 4.9 NNW 9 19 5 10 1021.0 1021.0 0.0
12/01:00pm 15.9 13.8 6.6 54 4.6 NNE 7 13 4 7 1021.7 1021.7 0.0
12/12:30pm 15.8 13.7 6.0 52 4.7 NW 6 11 3 6 1022.2 1022.2 0.0
12/12:00pm 14.4 12.3 5.7 56 4.1 N 6 11 3 6 1022.7 1022.7 0.0
12/11:30am 14.9 12.7 6.0 55 4.3 N 7 15 4 8 1023.3 1023.3 0.0
12/11:00am 14.4 11.9 6.5 59 3.8 NNE 9 15 5 8 1023.7 1023.7 0.0
12/10:30am 14.3 13.1 6.6 60 3.7 NW 2 7 1 4 1024.2 1024.2 0.0
12/10:00am 12.8 11.9 6.2 64 3.1 CALM 0 0 0 0 1024.5 1024.5 0.0
12/09:30am 11.5 9.6 6.8 73 2.2 NNW 6 7 3 4 1025.0 1025.0 0.0
12/09:00am 10.9 9.2 6.1 72 2.2 NNE 4 7 2 4 1025.1 1025.1 0.0
12/08:30am 9.7 8.9 6.4 80 1.5 CALM 0 6 0 3 1025.2 1025.2 0.0
12/08:00am 8.9 8.0 6.0 82 1.3 CALM 0 6 0 3 1024.8 1024.8 0.0
12/07:30am 7.1 5.8 4.2 82 1.2 CALM 0 0 0 0 1024.7 1024.7 0.0
12/07:00am 7.0 5.8 4.5 84 1.1 CALM 0 0 0 0 1024.7 1024.7 0.0
12/06:30am 6.3 5.1 4.5 88 0.8 CALM 0 0 0 0 1024.6 1024.6 0.0
12/06:00am 5.8 4.5 4.0 88 0.8 CALM 0 2 0 1 1024.4 1024.4 0.0
12/05:30am 5.5 4.1 3.3 86 0.9 CALM 0 2 0 1 1024.3 1024.3 0.0
12/05:00am 6.7 3.9 3.0 77 1.5 NNE 7 9 4 5 1024.0 1024.0 0.0
12/04:30am 6.6 4.1 3.6 81 1.3 NNE 6 11 3 6 1023.9 1023.9 0.0
12/04:00am 6.9 4.4 4.0 82 1.2 ENE 6 9 3 5 1024.0 1024.0 0.0
12/03:30am 6.5 4.8 4.0 84 1.1 SE 2 7 1 4 1024.5 1024.5 0.0
12/03:00am 6.2 4.8 3.7 84 1.1 CALM 0 0 0 0 1024.8 1024.8 0.0
12/02:30am 6.5 4.8 3.8 83 1.1 NNE 2 9 1 5 1024.9 1024.9 0.0
12/02:00am 7.2 5.8 3.3 76 1.6 CALM 0 0 0 0 1025.1 1025.1 0.0
12/01:30am 7.6 6.2 3.3 74 1.8 CALM 0 0 0 0 1025.3 1025.3 0.0
12/01:00am 8.4 6.5 3.1 69 2.3 SSE 2 6 1 3 1025.6 1025.6 0.0
12/12:30am 9.6 7.1 3.6 66 2.6 SSE 6 7 3 4 1025.8 1025.8 0.0
12/12:00am 10.8 8.3 3.6 61 3.1 SSE 6 11 3 6 1026.0 1026.0 0.0
 
Date/Time
CST
Temp
°C
App
Temp
°C
Dew
Point
°C
Rel
Hum
%
Delta-T
°C
Wind Press
QNH
hPa
Press
MSL
hPa
Rain since
9am
mm
Dir  Spd
km/h
Gust
km/h
Spd
kts
Gust
kts
11/11:30pm 11.5 9.4 3.8 59 3.4 SE 4 9 2 5 1026.1 1026.1 0.0
11/11:00pm 12.3 9.3 4.0 57 3.7 SE 9 17 5 9 1026.4 1026.4 0.0
11/10:30pm 12.3 9.8 4.8 60 3.4 SSE 7 13 4 7 1026.5 1026.5 0.0
11/10:00pm 12.5 10.1 5.2 61 3.4 SSE 7 11 4 6 1026.5 1026.5 0.0
11/09:30pm 12.4 10.3 6.0 65 3.0 SSE 6 13 3 7 1026.4 1026.4 0.0
11/09:00pm 12.4 10.6 7.1 70 2.5 S 6 9 3 5 1026.4 1026.4 0.0
11/08:30pm 12.4 10.6 7.1 70 2.5 S 6 9 3 5 1026.3 1026.3 0.0
11/08:00pm 12.5 10.4 6.8 68 2.7 S 7 13 4 7 1026.3 1026.3 0.0
11/07:30pm 12.6 10.1 6.6 67 2.8 S 9 19 5 10 1026.0 1026.0 0.0
11/07:00pm 12.6 10.5 6.6 67 2.9 SSE 7 11 4 6 1025.8 1025.8 0.0
11/06:30pm 12.9 10.0 6.5 65 3.0 SSE 11 20 6 11 1025.5 1025.5 0.0
11/06:00pm 12.5 10.3 6.1 65 3.0 SSE 7 11 4 6 1025.2 1025.2 0.0
11/05:30pm 12.9 10.6 5.8 62 3.3 SE 7 13 4 7 1024.8 1024.8 0.0
11/05:00pm 13.3 9.9 5.9 61 3.5 SSE 13 20 7 11 1024.7 1024.7 0.0
11/04:30pm 13.5 10.5 5.9 60 3.6 SE 11 20 6 11 1024.7 1024.7 0.0
11/04:00pm 14.2 11.0 6.8 61 3.6 SE 13 20 7 11 1024.6 1024.6 0.0
11/03:30pm 14.1 11.0 7.4 64 3.3 SE 13 22 7 12 1024.6 1024.6 0.0
11/03:00pm 13.7 9.7 6.8 63 3.3 SSE 17 30 9 16 1024.5 1024.5 0.0
11/02:30pm 15.1 13.1 7.2 59 3.9 E 7 13 4 7 1024.2 1024.2 0.0
11/02:00pm 15.2 12.5 7.5 60 3.8 SSE 11 20 6 11 1024.2 1024.2 0.0
11/01:30pm 15.4 13.0 6.9 57 4.2 SSE 9 22 5 12 1024.2 1024.2 0.0
11/01:00pm 14.3 11.9 6.9 61 3.6 SSE 9 13 5 7 1024.6 1024.6 0.0
11/12:30pm 14.9 11.7 7.0 59 3.9 SE 13 24 7 13 1024.8 1024.8 0.0
11/12:00pm 14.8 11.7 7.4 61 3.6 E 13 19 7 10 1025.0 1025.0 0.0
11/11:30am 14.8 11.8 7.6 62 3.6 SE 13 19 7 10 1025.2 1025.2 0.0

Latest Capital City Observations: Canberra | Sydney | Melbourne | Brisbane | Adelaide | Perth | Hobart | Darwin

Other formats

Comma delimited format used in spreadsheet applications
http://www.bom.gov.au/fwo/IDS60901/IDS60901.94648.axf

JavaScript Object Notation format (JSON) in row-major order
http://www.bom.gov.au/fwo/IDS60901/IDS60901.94648.json

Data quality

Most of these data are generated automatically and are frequently updated. Quality checks on data are not normally performed. It is possible for incorrect values to appear. Refer to information at About Latest Weather Observations and please check the disclaimer before using these data.